Terminal Aerodrome Forecast
Issued by NWS

Home | Current Version | Previous Version | Text Only | Print | Product List | Glossary On
Versions: 1 2 3 4 5 6 7 8 9 10 11 12 13 14 15
000
FTUS45 KBYZ 192327
TAFLVM
TAF
KLVM 192327Z 2000/2024 24018G28KT P6SM FEW250
     FM200900 26018G28KT P6SM BKN100=

USA.gov is the U.S. government's official web portal to all federal, state and local government web resources and services.